createdAt,value
2018-02-03T00:02:02.826Z,99744
2018-02-03T00:04:31.808Z,99736
2018-02-03T00:07:00.799Z,99737
2018-02-03T00:09:29.862Z,99734
2018-02-03T00:11:58.059Z,99736
2018-02-03T00:14:27.060Z,99730
2018-02-03T00:16:56.009Z,99738
2018-02-03T00:19:24.850Z,99728
2018-02-03T00:21:53.080Z,99728
2018-02-03T00:24:21.391Z,99722
2018-02-03T00:26:49.659Z,99730
2018-02-03T00:29:18.632Z,99719
2018-02-03T00:31:46.836Z,99717
2018-02-03T00:34:15.068Z,99712
2018-02-03T00:36:43.276Z,99721
2018-02-03T00:39:12.252Z,99705
2018-02-03T00:41:40.433Z,99715
2018-02-03T00:44:09.416Z,99718
2018-02-03T00:46:38.384Z,99724
2018-02-03T00:49:06.706Z,99730
2018-02-03T00:51:35.488Z,99730
2018-02-03T00:54:04.518Z,99728
2018-02-03T00:56:32.717Z,99733
2018-02-03T00:59:01.028Z,99736
2018-02-03T01:01:30.018Z,99732
2018-02-03T01:03:58.992Z,99729
2018-02-03T01:06:27.697Z,99730
2018-02-03T01:08:56.716Z,99735
2018-02-03T01:11:24.916Z,99735
2018-02-03T01:13:53.125Z,99732
2018-02-03T01:16:21.334Z,99735
2018-02-03T01:18:49.541Z,99722
2018-02-03T01:21:17.841Z,99732
2018-02-03T01:23:46.136Z,99727
2018-02-03T01:26:15.109Z,99731
2018-02-03T01:28:43.332Z,99734
2018-02-03T01:31:11.513Z,99731
2018-02-03T01:33:39.940Z,99735
2018-02-03T01:36:08.137Z,99727
2018-02-03T01:38:36.520Z,99721
2018-02-03T01:41:05.227Z,99714
2018-02-03T01:43:33.412Z,99719
2018-02-03T01:46:01.874Z,99718
2018-02-03T01:48:30.092Z,99712
2018-02-03T01:50:58.333Z,99716
2018-02-03T01:53:26.539Z,99706
2018-02-03T01:55:54.740Z,99717
2018-02-03T01:58:23.732Z,99703
2018-02-03T02:00:52.704Z,99703
2018-02-03T02:03:20.998Z,99706
2018-02-03T02:05:49.945Z,99714
2018-02-03T02:08:18.173Z,99705
2018-02-03T02:10:46.361Z,99702
2018-02-03T02:13:14.660Z,99704
2018-02-03T02:15:43.350Z,99700
2018-02-03T02:18:11.557Z,99696
2018-02-03T02:20:39.756Z,99702
2018-02-03T02:23:08.029Z,99700
2018-02-03T02:25:36.476Z,99694
2018-02-03T02:28:04.661Z,99693
2018-02-03T02:30:33.620Z,99692
2018-02-03T02:33:01.825Z,99701
2018-02-03T02:35:30.009Z,99700
2018-02-03T02:37:58.985Z,99693
2018-02-03T02:40:27.276Z,99701
2018-02-03T02:42:56.227Z,99695
2018-02-03T02:45:24.456Z,99700
2018-02-03T02:47:52.699Z,99692
2018-02-03T02:50:20.918Z,99699
2018-02-03T02:52:49.136Z,99710
2018-02-03T02:55:17.366Z,99699
2018-02-03T02:57:45.550Z,99690
2018-02-03T03:00:13.763Z,99689
2018-02-03T03:02:42.265Z,99682
2018-02-03T03:05:11.274Z,99687
2018-02-03T03:07:39.483Z,99694
2018-02-03T03:10:07.674Z,99686
2018-02-03T03:12:36.085Z,99685
2018-02-03T03:15:05.051Z,99680
2018-02-03T03:17:33.392Z,99676
2018-02-03T03:20:01.604Z,99676
2018-02-03T03:22:29.810Z,99688
2018-02-03T03:24:58.804Z,99686
2018-02-03T03:27:27.046Z,99681
2018-02-03T03:29:55.256Z,99688
2018-02-03T03:32:23.464Z,99693
2018-02-03T03:34:51.692Z,99678
2018-02-03T03:37:21.604Z,99681
2018-02-03T03:39:50.575Z,99684
2018-02-03T03:42:18.776Z,99687
2018-02-03T03:44:47.016Z,99684
2018-02-03T03:47:15.222Z,99688
2018-02-03T03:49:43.400Z,99685
2018-02-03T03:52:11.665Z,99687
2018-02-03T03:54:39.845Z,99684
2018-02-03T03:57:08.808Z,99682
2018-02-03T03:59:37.034Z,99680
2018-02-03T04:02:05.401Z,99679
2018-02-03T04:04:33.617Z,99676
2018-02-03T04:07:01.793Z,99687
2018-02-03T04:09:29.977Z,99686
2018-02-03T04:11:58.390Z,99682
2018-02-03T04:14:26.624Z,99676
2018-02-03T04:16:54.885Z,99685
2018-02-03T04:19:23.107Z,99682
2018-02-03T04:21:51.296Z,99685
2018-02-03T04:24:19.559Z,99681
2018-02-03T04:26:47.763Z,99684
2018-02-03T04:29:15.983Z,99689
2018-02-03T04:31:44.184Z,99685
2018-02-03T04:34:12.393Z,99688
2018-02-03T04:36:40.597Z,99680
2018-02-03T04:39:08.864Z,99676
2018-02-03T04:41:37.050Z,99678
2018-02-03T04:44:05.341Z,99668
2018-02-03T04:46:35.024Z,99671
2018-02-03T04:49:03.529Z,99677
2018-02-03T04:51:32.476Z,99668
2018-02-03T04:54:00.718Z,99682
2018-02-03T04:56:28.958Z,99678
2018-02-03T04:58:57.962Z,99674
2018-02-03T05:01:26.912Z,99671
2018-02-03T05:03:55.113Z,99685
2018-02-03T05:06:24.094Z,99686
2018-02-03T05:08:52.300Z,99679
2018-02-03T05:11:20.549Z,99687
2018-02-03T05:13:48.755Z,99683
2018-02-03T05:16:16.951Z,99687
2018-02-03T05:18:45.168Z,99687
2018-02-03T05:21:13.396Z,99671
2018-02-03T05:23:41.646Z,99676
2018-02-03T05:26:09.832Z,99679
2018-02-03T05:28:38.412Z,99683
2018-02-03T05:31:06.657Z,99676
2018-02-03T05:33:35.616Z,99688
2018-02-03T05:36:03.838Z,99686
2018-02-03T05:38:32.052Z,99682
2018-02-03T05:41:00.256Z,99691
2018-02-03T05:43:28.432Z,99687
2018-02-03T05:45:56.661Z,99690
2018-02-03T05:48:24.849Z,99687
2018-02-03T05:50:53.353Z,99696
2018-02-03T05:53:21.630Z,99701
2018-02-03T05:55:49.844Z,99696
2018-02-03T05:58:18.488Z,99697
2018-02-03T06:00:46.688Z,99708
2018-02-03T06:03:15.681Z,99699
2018-02-03T06:05:43.915Z,99710
2018-02-03T06:08:12.634Z,99714
2018-02-03T06:10:41.581Z,99712
2018-02-03T06:13:10.016Z,99719
2018-02-03T06:15:38.265Z,99716
2018-02-03T06:18:06.475Z,99717
2018-02-03T06:20:34.709Z,99727
2018-02-03T06:23:02.900Z,99716
2018-02-03T06:25:31.867Z,99720
2018-02-03T06:28:00.116Z,99723
2018-02-03T06:30:28.329Z,99727
2018-02-03T06:32:57.281Z,99720
2018-02-03T06:35:25.923Z,99720
2018-02-03T06:37:54.905Z,99725
2018-02-03T06:40:23.883Z,99719
2018-02-03T06:42:52.088Z,99734
2018-02-03T06:45:20.337Z,99742
2018-02-03T06:47:48.713Z,99744
2018-02-03T06:50:16.892Z,99743
2018-02-03T06:52:45.864Z,99729
2018-02-03T06:55:14.090Z,99745
2018-02-03T06:57:42.278Z,99742
2018-02-03T07:00:10.604Z,99749
2018-02-03T07:02:39.816Z,99741
2018-02-03T07:05:08.761Z,99759
2018-02-03T07:07:37.601Z,99742
2018-02-03T07:10:05.808Z,99749
2018-02-03T07:12:33.997Z,99759
2018-02-03T07:15:02.430Z,99761
2018-02-03T07:17:30.617Z,99758
2018-02-03T07:19:58.792Z,99766
2018-02-03T07:22:27.022Z,99765
2018-02-03T07:24:55.224Z,99769
2018-02-03T07:27:23.512Z,99767
2018-02-03T07:29:51.732Z,99771
2018-02-03T07:32:19.932Z,99763
2018-02-03T07:34:48.913Z,99769
2018-02-03T07:37:17.245Z,99764
2018-02-03T07:39:45.476Z,99773
2018-02-03T07:42:14.434Z,99767
2018-02-03T07:44:42.679Z,99777
2018-02-03T07:47:10.874Z,99772
2018-02-03T07:49:39.085Z,99778
2018-02-03T07:52:08.077Z,99779
2018-02-03T07:54:37.073Z,99781
2018-02-03T07:57:06.040Z,99786
2018-02-03T07:59:34.248Z,99782
2018-02-03T08:02:02.466Z,99776
2018-02-03T08:04:30.733Z,99772
2018-02-03T08:06:58.973Z,99779
2018-02-03T08:09:27.201Z,99778
2018-02-03T08:11:55.381Z,99785
2018-02-03T08:14:23.580Z,99781
2018-02-03T08:16:52.592Z,99781
2018-02-03T08:19:20.801Z,99785
2018-02-03T08:21:48.993Z,99779
2018-02-03T08:24:17.820Z,99779
2018-02-03T08:26:46.012Z,99785
2018-02-03T08:29:14.649Z,99790
2018-02-03T08:31:43.368Z,99784
2018-02-03T08:34:11.573Z,99796
2018-02-03T08:36:39.786Z,99780
2018-02-03T08:39:08.019Z,99785
2018-02-03T08:41:36.204Z,99777
2018-02-03T08:44:04.377Z,99778
2018-02-03T08:46:32.572Z,99776
2018-02-03T08:49:00.842Z,99784
2018-02-03T08:51:29.064Z,99777
2018-02-03T08:53:57.301Z,99787
2018-02-03T08:56:25.522Z,99788
2018-02-03T08:58:53.737Z,99800
2018-02-03T09:01:21.940Z,99798
2018-02-03T09:03:52.293Z,99792
2018-02-03T09:06:20.954Z,99795
2018-02-03T09:08:50.214Z,99794
2018-02-03T09:11:18.415Z,99795
2018-02-03T09:13:47.400Z,99797
2018-02-03T09:16:15.734Z,99794
2018-02-03T09:18:43.969Z,99799
2018-02-03T09:21:12.941Z,99809
2018-02-03T09:23:41.218Z,99805
2018-02-03T09:26:09.559Z,99810
2018-02-03T09:28:37.749Z,99804
2018-02-03T09:31:05.933Z,99817
2018-02-03T09:33:34.136Z,99807
2018-02-03T09:36:03.137Z,99794
2018-02-03T09:38:31.325Z,99803
2018-02-03T09:40:59.529Z,99813
2018-02-03T09:43:28.595Z,99801
2018-02-03T09:45:57.363Z,99802
2018-02-03T09:48:25.546Z,99794
2018-02-03T09:50:53.744Z,99807
2018-02-03T09:53:21.976Z,99801
2018-02-03T09:55:50.229Z,99817
2018-02-03T09:58:18.440Z,99806
2018-02-03T10:00:46.664Z,99806
2018-02-03T10:03:14.844Z,99817
2018-02-03T10:05:43.642Z,99809
2018-02-03T10:08:12.634Z,99818
2018-02-03T10:10:41.628Z,99818
2018-02-03T10:13:10.672Z,99813
2018-02-03T10:15:38.892Z,99809
2018-02-03T10:18:07.093Z,99826
2018-02-03T10:20:35.292Z,99818
2018-02-03T10:23:03.502Z,99819
2018-02-03T10:25:31.709Z,99821
2018-02-03T10:27:59.961Z,99825
2018-02-03T10:30:29.252Z,99820
2018-02-03T10:32:57.454Z,99821
2018-02-03T10:35:27.166Z,99813
2018-02-03T10:37:55.434Z,99812
2018-02-03T10:40:23.660Z,99813
2018-02-03T10:42:51.837Z,99819
2018-02-03T10:45:20.935Z,99822
2018-02-03T10:47:49.162Z,99818
2018-02-03T10:50:17.337Z,99807
2018-02-03T10:52:45.544Z,99810
2018-02-03T10:55:13.788Z,99822
2018-02-03T10:57:41.996Z,99822
2018-02-03T11:00:10.212Z,99820
2018-02-03T11:02:39.152Z,99818
2018-02-03T11:05:07.324Z,99817
2018-02-03T11:07:35.540Z,99830
2018-02-03T11:10:04.556Z,99829
2018-02-03T11:12:32.825Z,99826
2018-02-03T11:15:02.328Z,99839
2018-02-03T11:17:31.302Z,99830
2018-02-03T11:19:59.529Z,99839
2018-02-03T11:22:27.728Z,99843
2018-02-03T11:24:55.933Z,99844
2018-02-03T11:27:24.954Z,99838
2018-02-03T11:29:53.136Z,99837
2018-02-03T11:32:21.321Z,99842
2018-02-03T11:34:49.537Z,99845
2018-02-03T11:37:17.757Z,99841
2018-02-03T11:39:45.976Z,99847
2018-02-03T11:42:14.182Z,99836
2018-02-03T11:44:42.377Z,99842
2018-02-03T11:47:10.616Z,99838
2018-02-03T11:49:39.562Z,99839
2018-02-03T11:52:07.760Z,99843
2018-02-03T11:54:37.157Z,99837
2018-02-03T11:57:05.376Z,99837
2018-02-03T11:59:33.556Z,99848
2018-02-03T12:02:01.756Z,99838
2018-02-03T12:04:29.956Z,99841
2018-02-03T12:06:58.158Z,99831
2018-02-03T12:09:26.341Z,99834
2018-02-03T12:11:54.568Z,99831
2018-02-03T12:14:22.768Z,99830
2018-02-03T12:16:51.760Z,99825
2018-02-03T12:19:20.724Z,99830
2018-02-03T12:21:49.135Z,99833
2018-02-03T12:24:18.110Z,99833
2018-02-03T12:26:46.292Z,99835
2018-02-03T12:29:15.260Z,99835
2018-02-03T12:31:43.456Z,99833
2018-02-03T12:34:12.568Z,99837
2018-02-03T12:36:40.797Z,99839
2018-02-03T12:39:08.989Z,99846
2018-02-03T12:41:37.192Z,99851
2018-02-03T12:44:05.418Z,99846
2018-02-03T12:46:33.621Z,99852
2018-02-03T12:49:02.957Z,99855
2018-02-03T12:51:32.004Z,99859
2018-02-03T12:54:00.813Z,99852
2018-02-03T12:56:30.619Z,99849
2018-02-03T12:58:59.581Z,99843
2018-02-03T13:01:28.112Z,99843
2018-02-03T13:03:56.320Z,99846
2018-02-03T13:06:24.520Z,99851
2018-02-03T13:08:52.796Z,99850
2018-02-03T13:11:21.029Z,99851
2018-02-03T13:13:49.227Z,99847
2018-02-03T13:16:17.405Z,99848
2018-02-03T13:18:45.797Z,99849
2018-02-03T13:21:13.985Z,99860
2018-02-03T13:23:42.965Z,99857
2018-02-03T13:26:11.268Z,99852
2018-02-03T13:28:40.236Z,99851
2018-02-03T13:31:09.224Z,99855
2018-02-03T13:33:37.479Z,99861
2018-02-03T13:36:05.836Z,99869
2018-02-03T13:38:34.037Z,99869
2018-02-03T13:41:02.240Z,99873
2018-02-03T13:43:31.237Z,99865
2018-02-03T13:46:00.271Z,99864
2018-02-03T13:48:28.476Z,99871
2018-02-03T13:50:56.683Z,99860
2018-02-03T13:53:24.940Z,99868
2018-02-03T13:55:53.927Z,99870
2018-02-03T13:58:23.000Z,99873
2018-02-03T14:00:51.176Z,99875
2018-02-03T14:03:19.360Z,99878
2018-02-03T14:05:47.558Z,99864
2018-02-03T14:08:17.216Z,99876
2018-02-03T14:10:45.441Z,99872
2018-02-03T14:13:13.653Z,99868
2018-02-03T14:15:41.852Z,99871
2018-02-03T14:18:10.684Z,99872
2018-02-03T14:20:38.919Z,99870
2018-02-03T14:23:07.136Z,99880
2018-02-03T14:25:35.357Z,99886
2018-02-03T14:28:03.541Z,99884
2018-02-03T14:30:31.776Z,99883
2018-02-03T14:32:59.952Z,99885
2018-02-03T14:35:28.177Z,99884
2018-02-03T14:37:57.144Z,99888
2018-02-03T14:40:25.358Z,99899
2018-02-03T14:42:53.562Z,99891
2018-02-03T14:45:21.857Z,99890
2018-02-03T14:47:50.036Z,99900
2018-02-03T14:50:18.260Z,99902
2018-02-03T14:52:46.467Z,99894
2018-02-03T14:55:14.650Z,99899
2018-02-03T14:57:42.952Z,99901
2018-02-03T15:00:11.485Z,99914
2018-02-03T15:02:39.692Z,99919
2018-02-03T15:05:08.033Z,99918
2018-02-03T15:07:36.229Z,99928
2018-02-03T15:10:04.426Z,99920
2018-02-03T15:12:32.673Z,99927
2018-02-03T15:15:00.887Z,99926
2018-02-03T15:17:29.867Z,99932
2018-02-03T15:19:58.096Z,99936
2018-02-03T15:22:26.308Z,99931
2018-02-03T15:24:54.549Z,99942
2018-02-03T15:27:22.808Z,99945
2018-02-03T15:29:50.992Z,99942
2018-02-03T15:32:19.237Z,99952
2018-02-03T15:34:48.185Z,99955
2018-02-03T15:37:16.392Z,99964
2018-02-03T15:39:45.366Z,99964
2018-02-03T15:42:13.550Z,99961
2018-02-03T15:44:41.776Z,99955
2018-02-03T15:47:10.047Z,99967
2018-02-03T15:49:38.620Z,99962
2018-02-03T15:52:06.804Z,99965
2018-02-03T15:54:35.031Z,99961
2018-02-03T15:57:03.989Z,99956
2018-02-03T15:59:32.323Z,99966
2018-02-03T16:02:00.553Z,99953
2018-02-03T16:04:28.804Z,99952
2018-02-03T16:06:56.993Z,99955
2018-02-03T16:09:25.226Z,99961
2018-02-03T16:11:53.437Z,99961
2018-02-03T16:14:21.682Z,99949
2018-02-03T16:16:49.917Z,99944
2018-02-03T16:19:18.717Z,99952
2018-02-03T16:21:47.664Z,99950
2018-02-03T16:24:15.860Z,99947
2018-02-03T16:26:44.064Z,99957
2018-02-03T16:29:12.295Z,99963
2018-02-03T16:31:40.528Z,99961
2018-02-03T16:34:08.757Z,99967
2018-02-03T16:36:37.012Z,99966
2018-02-03T16:39:05.220Z,99962
2018-02-03T16:41:34.164Z,99958
2018-02-03T16:44:02.393Z,99967
2018-02-03T16:46:30.645Z,99966
2018-02-03T16:48:58.822Z,99973
2018-02-03T16:51:27.025Z,99974
2018-02-03T16:53:55.917Z,99973
2018-02-03T16:59:23.104Z,99975
2018-02-03T17:01:51.328Z,99981
2018-02-03T17:04:19.510Z,99971
2018-02-03T17:06:48.508Z,99975
2018-02-03T17:09:17.493Z,99980
2018-02-03T17:11:46.505Z,99979
2018-02-03T17:14:14.712Z,99975
2018-02-03T17:16:42.932Z,99983
2018-02-03T17:19:11.116Z,99978
2018-02-03T17:21:40.119Z,99993
2018-02-03T17:24:08.836Z,99991
2018-02-03T17:26:37.060Z,99997
2018-02-03T17:29:06.370Z,99994
2018-02-03T17:31:35.445Z,99992
2018-02-03T17:34:03.652Z,99988
2018-02-03T17:36:37.564Z,99999
2018-02-03T17:39:16.528Z,99996
2018-02-03T17:41:44.838Z,100005
2018-02-03T17:44:13.820Z,100005
2018-02-03T17:46:47.590Z,100012
2018-02-03T17:49:15.924Z,100019
2018-02-03T17:51:44.153Z,100016
2018-02-03T17:54:12.353Z,100021
2018-02-03T17:59:46.675Z,100031
2018-02-03T18:02:14.881Z,100032
2018-02-03T18:04:43.088Z,100038
2018-02-03T18:07:11.333Z,100044
2018-02-03T18:09:40.355Z,100053
2018-02-03T18:12:08.635Z,100044
2018-02-03T18:14:36.844Z,100031
2018-02-03T18:17:05.036Z,100042
2018-02-03T18:19:34.036Z,100028
2018-02-03T18:22:02.279Z,100045
2018-02-03T18:24:30.471Z,100046
2018-02-03T18:26:59.734Z,100050
2018-02-03T18:29:27.940Z,100048
2018-02-03T18:31:56.896Z,100045
2018-02-03T18:34:25.109Z,100047
2018-02-03T18:36:54.069Z,100046
2018-02-03T18:39:22.447Z,100033
2018-02-03T18:41:50.649Z,100040
2018-02-03T18:44:19.813Z,100038
2018-02-03T18:46:48.132Z,100041
2018-02-03T18:49:17.109Z,100048
2018-02-03T18:51:46.076Z,100052
2018-02-03T18:54:14.939Z,100044
2018-02-03T18:56:43.188Z,100045
2018-02-03T18:59:12.235Z,100039
2018-02-03T19:01:40.420Z,100048
2018-02-03T19:04:08.624Z,100056
2018-02-03T19:06:37.612Z,100048
2018-02-03T19:09:06.584Z,100066
2018-02-03T19:11:34.783Z,100064
2018-02-03T19:14:03.775Z,100063
2018-02-03T19:16:32.297Z,100064
2018-02-03T19:19:00.569Z,100069
2018-02-03T19:21:28.765Z,100077
2018-02-03T19:23:57.184Z,100073
2018-02-03T19:26:25.479Z,100081
2018-02-03T19:28:53.730Z,100082
2018-02-03T19:31:22.732Z,100079
2018-02-03T19:33:50.917Z,100091
2018-02-03T19:36:19.153Z,100094
2018-02-03T19:38:48.129Z,100085
2018-02-03T19:41:16.338Z,100089
2018-02-03T19:43:44.526Z,100103
2018-02-03T19:46:12.701Z,100087
2018-02-03T19:48:40.900Z,100093
2018-02-03T19:51:09.104Z,100094
2018-02-03T19:53:37.327Z,100093
2018-02-03T19:56:05.722Z,100096
2018-02-03T19:58:33.972Z,100103
2018-02-03T20:01:02.157Z,100109
2018-02-03T20:03:30.368Z,100108
2018-02-03T20:05:58.576Z,100122
2018-02-03T20:08:27.680Z,100124
2018-02-03T20:10:55.899Z,100121
2018-02-03T20:13:24.112Z,100123
2018-02-03T20:15:53.312Z,100126
2018-02-03T20:18:22.261Z,100131
2018-02-03T20:20:50.464Z,100130
2018-02-03T20:23:19.440Z,100132
2018-02-03T20:25:47.666Z,100128
2018-02-03T20:28:15.923Z,100132
2018-02-03T20:30:44.114Z,100138
2018-02-03T20:33:12.677Z,100143
2018-02-03T20:35:40.933Z,100138
2018-02-03T20:38:09.132Z,100144
2018-02-03T20:40:37.356Z,100143
2018-02-03T20:43:05.564Z,100147
2018-02-03T20:45:34.611Z,100171
2018-02-03T20:48:03.053Z,100168
2018-02-03T20:50:31.261Z,100158
2018-02-03T20:53:00.187Z,100169
2018-02-03T20:55:28.372Z,100169
2018-02-03T20:57:57.382Z,100176
2018-02-03T21:00:25.569Z,100168
2018-02-03T21:02:53.781Z,100190
2018-02-03T21:05:22.003Z,100176
2018-02-03T21:07:50.252Z,100183
2018-02-03T21:10:19.142Z,100191
2018-02-03T21:12:48.128Z,100187
2018-02-03T21:15:16.398Z,100187
2018-02-03T21:17:44.572Z,100191
2018-02-03T21:20:12.784Z,100200
2018-02-03T21:22:41.016Z,100201
2018-02-03T21:25:09.237Z,100204
2018-02-03T21:27:37.437Z,100200
2018-02-03T21:30:05.629Z,100214
2018-02-03T21:32:33.833Z,100203
2018-02-03T21:35:02.885Z,100213
2018-02-03T21:37:31.088Z,100208
2018-02-03T21:39:59.325Z,100230
2018-02-03T21:42:27.529Z,100224
2018-02-03T21:44:55.714Z,100225
2018-02-03T21:47:24.699Z,100221
2018-02-03T21:49:52.900Z,100221
2018-02-03T21:52:21.126Z,100229
2018-02-03T21:54:49.309Z,100237
2018-02-03T21:57:17.600Z,100234
2018-02-03T21:59:46.863Z,100232
2018-02-03T22:02:15.092Z,100229
2018-02-03T22:04:44.117Z,100240
2018-02-03T22:07:12.325Z,100242
2018-02-03T22:09:40.579Z,100237
2018-02-03T22:12:08.772Z,100242
2018-02-03T22:14:36.952Z,100236
2018-02-03T22:17:05.294Z,100244
2018-02-03T22:19:33.528Z,100245
2018-02-03T22:22:02.611Z,100250
2018-02-03T22:24:31.567Z,100256
2018-02-03T22:26:59.753Z,100251
2018-02-03T22:29:28.044Z,100256
2018-02-03T22:31:56.296Z,100258
2018-02-03T22:34:24.512Z,100259
2018-02-03T22:36:52.722Z,100258
2018-02-03T22:39:20.942Z,100266
2018-02-03T22:41:49.144Z,100266
2018-02-03T22:44:17.400Z,100272
2018-02-03T22:46:46.380Z,100278
2018-02-03T22:49:14.610Z,100293
2018-02-03T22:51:42.825Z,100300
2018-02-03T22:54:11.052Z,100296
2018-02-03T22:56:39.249Z,100303
2018-02-03T22:59:07.455Z,100304
2018-02-03T23:01:35.672Z,100299
2018-02-03T23:04:03.892Z,100305
2018-02-03T23:06:32.101Z,100307
2018-02-03T23:09:00.302Z,100295
2018-02-03T23:11:28.528Z,100314
2018-02-03T23:13:57.504Z,100300
2018-02-03T23:16:25.728Z,100316
2018-02-03T23:18:53.909Z,100313
2018-02-03T23:21:22.087Z,100316
2018-02-03T23:23:50.304Z,100326
2018-02-03T23:26:18.498Z,100332
2018-02-03T23:28:47.699Z,100337
2018-02-03T23:31:15.976Z,100321
2018-02-03T23:33:44.184Z,100319
2018-02-03T23:36:12.485Z,100322
2018-02-03T23:38:40.673Z,100333
2018-02-03T23:41:08.897Z,100324
2018-02-03T23:43:37.089Z,100334
2018-02-03T23:46:05.288Z,100330
2018-02-03T23:48:33.506Z,100330
2018-02-03T23:51:01.711Z,100334
2018-02-03T23:53:29.892Z,100339
2018-02-03T23:55:58.184Z,100341
2018-02-03T23:58:26.415Z,100337
